Stoutland, Missouri
Current Conditions -  °F | °C
As of 8:15 AM on Thursday 29 Jan 2015 (Local Time) from KH21 Reporting Station
Overcast Overcast  
Wind Chill: 29°   Ceiling: 1500
Heat Index: 39°   Visibility: 10mi
Dew Point: 34°   Wind: 21mph
Humidity: 81%   Direction: 310°NW
Pressure: 30.15"   Gusts: 28mph
Location:  37.81°N, 92.51°W
Report Text: KH21 291415Z AUTO 31018G24KT 10SM OVC015 04/01 A3015 RMK AO2
Loading
Personal Weather Stations






























Interactive Weather Map New forecast layout! Learn more

10-Day Weather Forecast

Advertisements
Track Severe Weather on mobile